Gassim, Saudi Arabia
Current Conditions -  °F | °C
As of 4:00 PM on Monday 22 Dec 2014 (Local Time) from OEGS Reporting Station
Clear Clear  
Wind Chill: 66°   Ceiling: Unl
Heat Index: 66°   Visibility: 6mi
Dew Point: 45°   Wind: 7mph
Humidity: 46%   Direction: 90°E
Pressure: 30"   Gusts: NA
Location:  26.3°N, 43.77°E
Report Text: OEGS 221300Z 09006KT CAVOK 19/07 Q1016
Loading
Personal Weather Stations






























Interactive Weather Map New forecast layout! Learn more

10-Day Weather Forecast

Advertisements
Track Severe Weather on mobile